Terminal Aerodrome Forecast
Issued by NWS Cleveland, OH

Home | Current Version | Previous Version | Text Only | Print | Product List | Glossary Off
Versions: 1 2 3 4 5 6 7 8 9 10 11 12 13 14 15 16 17 18

000
FTUS41 KCLE 152300 RRA
TAFCAK
TAF
KCAK 152343Z 1600/1624 VRB04KT P6SM VCSH SCT045 OVC100
     FM160100 34004KT 6SM -SHRA BR SCT025 BKN045
      TEMPO 1602/1606 30004KT 4SM RA BR BKN025
     FM160600 33004KT 5SM BR OVC012
     FM160800 33004KT 4SM BR OVC007
     FM161400 32004KT P6SM BKN015
     FM162000 29006KT P6SM BKN030=

USA.gov is the U.S. government's official web portal to all federal, state and local government web resources and services.